createdAt,value
2022-08-16T00:01:44.626Z,23.76
2022-08-16T00:04:32.261Z,23.71
2022-08-16T00:07:19.763Z,23.68
2022-08-16T00:10:10.822Z,23.61
2022-08-16T00:13:10.620Z,23.46
2022-08-16T00:15:57.792Z,23.39
2022-08-16T00:18:46.006Z,23.55
2022-08-16T00:21:34.845Z,23.28
2022-08-16T00:24:30.878Z,23.18
2022-08-16T00:27:19.540Z,23.24
2022-08-16T00:30:19.592Z,23.30
2022-08-16T00:33:15.922Z,23.32
2022-08-16T00:36:03.456Z,23.12
2022-08-16T00:38:50.598Z,23.21
2022-08-16T00:41:38.144Z,23.30
2022-08-16T00:44:32.718Z,23.14
2022-08-16T00:47:22.197Z,23.19
2022-08-16T00:50:11.836Z,23.13
2022-08-16T00:52:59.787Z,23.08
2022-08-16T00:55:52.020Z,22.92
2022-08-16T00:58:41.067Z,22.81
2022-08-16T01:01:32.817Z,22.85
2022-08-16T01:04:30.514Z,22.86
2022-08-16T01:07:17.951Z,22.85
2022-08-16T01:10:15.847Z,22.80
2022-08-16T01:13:12.332Z,22.74
2022-08-16T01:16:20.058Z,22.94
2022-08-16T01:19:20.227Z,22.79
2022-08-16T01:22:48.448Z,22.31
2022-08-16T01:25:39.082Z,22.45
2022-08-16T01:28:30.830Z,22.19
2022-08-16T01:31:21.764Z,22.37
2022-08-16T01:34:23.261Z,22.60
2022-08-16T01:37:14.328Z,22.68
2022-08-16T01:40:07.182Z,22.69
2022-08-16T01:42:55.407Z,22.62
2022-08-16T01:45:44.036Z,22.59
2022-08-16T01:48:32.619Z,22.65
2022-08-16T01:51:25.617Z,22.66
2022-08-16T01:54:13.181Z,22.60
2022-08-16T01:57:02.055Z,22.33
2022-08-16T01:59:49.694Z,22.12
2022-08-16T02:02:43.167Z,22.13
2022-08-16T02:05:31.069Z,22.35
2022-08-16T02:08:33.439Z,22.50
2022-08-16T02:11:23.258Z,22.39
2022-08-16T02:14:18.504Z,22.45
2022-08-16T02:17:11.064Z,22.25
2022-08-16T02:19:59.187Z,22.20
2022-08-16T02:22:47.051Z,22.29
2022-08-16T02:25:52.922Z,22.21
2022-08-16T02:28:45.308Z,22.17
2022-08-16T02:32:02.653Z,22.16
2022-08-16T02:34:41.705Z,22.22
2022-08-16T02:37:44.762Z,22.23
2022-08-16T02:40:36.214Z,22.19
2022-08-16T02:43:27.414Z,22.01
2022-08-16T02:46:14.759Z,21.81
2022-08-16T02:49:02.190Z,21.82
2022-08-16T02:51:50.243Z,21.85
2022-08-16T02:54:37.479Z,21.97
2022-08-16T02:57:25.097Z,22.05
2022-08-16T03:00:33.661Z,22.02
2022-08-16T03:03:21.371Z,22.00
2022-08-16T03:06:41.585Z,21.94
2022-08-16T03:09:16.305Z,22.13
2022-08-16T03:12:04.935Z,22.03
2022-08-16T03:14:52.380Z,21.93
2022-08-16T03:17:53.099Z,21.68
2022-08-16T03:20:41.288Z,21.97
2022-08-16T03:23:28.315Z,21.70
2022-08-16T03:26:23.251Z,21.59
2022-08-16T03:29:12.216Z,21.68
2022-08-16T03:32:01.434Z,21.66
2022-08-16T03:34:49.905Z,21.78
2022-08-16T03:38:03.072Z,21.71
2022-08-16T03:40:44.321Z,21.89
2022-08-16T03:43:51.502Z,21.99
2022-08-16T03:46:47.882Z,21.76
2022-08-16T03:49:37.558Z,21.75
2022-08-16T03:52:31.495Z,21.61
2022-08-16T03:55:18.979Z,21.50
2022-08-16T03:58:07.523Z,21.52
2022-08-16T04:00:59.268Z,21.40
2022-08-16T04:03:46.539Z,21.30
2022-08-16T04:06:33.634Z,21.28
2022-08-16T04:09:20.724Z,21.25
2022-08-16T04:12:53.673Z,21.22
2022-08-16T04:15:18.121Z,21.34
2022-08-16T04:18:06.870Z,21.41
2022-08-16T04:20:54.897Z,21.35
2022-08-16T04:23:43.471Z,21.29
2022-08-16T04:26:32.470Z,21.35
2022-08-16T04:29:23.736Z,21.25
2022-08-16T04:32:11.651Z,21.19
2022-08-16T04:35:06.317Z,21.16
2022-08-16T04:37:55.517Z,21.08
2022-08-16T04:40:42.610Z,21.08
2022-08-16T04:43:29.813Z,20.82
2022-08-16T04:47:00.301Z,20.70
2022-08-16T04:49:24.713Z,20.63
2022-08-16T04:52:33.328Z,20.81
2022-08-16T04:55:31.947Z,20.70
2022-08-16T04:58:44.946Z,21.02
2022-08-16T05:01:56.054Z,21.07
2022-08-16T05:04:39.401Z,21.02
2022-08-16T05:07:27.058Z,20.72
2022-08-16T05:10:19.574Z,20.77
2022-08-16T05:13:08.098Z,20.80
2022-08-16T05:16:02.597Z,20.81
2022-08-16T05:18:51.069Z,20.91
2022-08-16T05:21:40.344Z,20.82
2022-08-16T05:24:27.247Z,20.88
2022-08-16T05:27:14.398Z,20.93
2022-08-16T05:30:04.839Z,20.89
2022-08-16T05:33:09.135Z,20.91
2022-08-16T05:36:04.082Z,21.01
2022-08-16T05:39:02.398Z,21.12
2022-08-16T05:41:51.828Z,20.99
2022-08-16T05:44:39.043Z,20.99
2022-08-16T05:47:27.496Z,20.94
2022-08-16T05:50:18.956Z,20.96
2022-08-16T05:53:07.231Z,21.06
2022-08-16T05:55:57.199Z,21.12
2022-08-16T05:58:44.178Z,21.22
2022-08-16T06:01:32.899Z,21.29
2022-08-16T06:04:34.905Z,21.42
2022-08-16T06:07:24.952Z,21.56
2022-08-16T06:10:13.824Z,21.75
2022-08-16T06:13:19.232Z,21.77
2022-08-16T06:16:07.470Z,21.77
2022-08-16T06:18:54.815Z,21.72
2022-08-16T06:21:42.088Z,21.87
2022-08-16T06:24:54.509Z,21.97
2022-08-16T06:27:39.869Z,21.89
2022-08-16T06:30:28.693Z,21.76
2022-08-16T06:33:22.402Z,22.04
2022-08-16T06:36:11.776Z,22.06
2022-08-16T06:39:01.387Z,22.02
2022-08-16T06:41:53.154Z,22.04
2022-08-16T06:44:40.053Z,22.24
2022-08-16T06:47:53.610Z,22.32
2022-08-16T06:50:36.345Z,22.18
2022-08-16T06:53:25.173Z,22.45
2022-08-16T06:56:14.581Z,22.73
2022-08-16T06:59:10.556Z,22.58
2022-08-16T07:01:58.488Z,22.68
2022-08-16T07:04:45.790Z,22.83
2022-08-16T07:07:34.650Z,23.02
2022-08-16T07:10:25.603Z,23.09
2022-08-16T07:13:16.771Z,23.21
2022-08-16T07:16:20.434Z,23.33
2022-08-16T07:19:11.430Z,23.39
2022-08-16T07:21:59.909Z,23.33
2022-08-16T07:24:47.799Z,23.46
2022-08-16T07:27:37.712Z,23.39
2022-08-16T07:30:38.799Z,23.60
2022-08-16T07:33:53.138Z,24.04
2022-08-16T07:36:41.976Z,24.04
2022-08-16T07:39:33.715Z,23.88
2022-08-16T07:42:35.156Z,23.95
2022-08-16T07:45:22.788Z,24.15
2022-08-16T07:48:11.173Z,24.30
2022-08-16T07:51:00.984Z,24.29
2022-08-16T07:54:02.351Z,24.16
2022-08-16T07:56:56.800Z,24.04
2022-08-16T07:59:46.601Z,24.27
2022-08-16T08:02:34.364Z,24.38
2022-08-16T08:05:35.302Z,24.67
2022-08-16T08:08:51.299Z,24.85
2022-08-16T08:11:30.344Z,24.76
2022-08-16T08:14:29.459Z,24.83
2022-08-16T08:17:17.573Z,24.86
2022-08-16T08:20:10.873Z,25.02
2022-08-16T08:23:00.982Z,24.98
2022-08-16T08:25:54.167Z,24.89
2022-08-16T08:28:42.327Z,25.06
2022-08-16T08:31:29.693Z,25.05
2022-08-16T08:34:18.791Z,25.14
2022-08-16T08:37:05.984Z,25.25
2022-08-16T08:39:55.078Z,25.26
2022-08-16T08:42:48.096Z,25.29
2022-08-16T08:45:48.505Z,25.30
2022-08-16T08:48:39.748Z,25.50
2022-08-16T08:51:32.104Z,25.49
2022-08-16T08:54:23.805Z,25.62
2022-08-16T08:57:10.770Z,25.62
2022-08-16T08:59:58.300Z,25.57
2022-08-16T09:02:45.671Z,25.72
2022-08-16T09:05:39.490Z,25.79
2022-08-16T09:08:27.378Z,25.78
2022-08-16T09:11:16.728Z,26.00
2022-08-16T09:14:05.735Z,25.97
2022-08-16T09:17:02.475Z,26.27
2022-08-16T09:19:55.308Z,26.14
2022-08-16T09:22:52.364Z,26.22
2022-08-16T09:25:39.911Z,26.34
2022-08-16T09:29:13.415Z,26.45
2022-08-16T09:31:41.308Z,26.49
2022-08-16T09:34:29.661Z,26.54
2022-08-16T09:37:19.667Z,26.67
2022-08-16T09:40:33.038Z,26.93
2022-08-16T09:43:58.355Z,26.80
2022-08-16T09:46:45.844Z,26.80
2022-08-16T09:49:37.089Z,27.12
2022-08-16T09:52:24.514Z,27.08
2022-08-16T09:55:13.854Z,27.04
2022-08-16T09:58:01.735Z,27.02
2022-08-16T10:00:49.630Z,27.06
2022-08-16T10:03:37.086Z,27.18
2022-08-16T10:06:25.843Z,27.22
2022-08-16T10:09:20.881Z,27.25
2022-08-16T10:12:26.865Z,27.14
2022-08-16T10:15:18.865Z,27.22
2022-08-16T10:19:00.112Z,27.36
2022-08-16T10:21:16.994Z,27.48
2022-08-16T10:24:07.617Z,27.48
2022-08-16T10:27:17.656Z,27.55
2022-08-16T10:30:25.557Z,27.55
2022-08-16T10:33:14.690Z,27.68
2022-08-16T10:36:06.280Z,27.66
2022-08-16T10:38:54.701Z,27.73
2022-08-16T10:41:41.650Z,27.88
2022-08-16T10:44:32.648Z,28.13
2022-08-16T10:47:19.994Z,28.11
2022-08-16T10:50:19.004Z,28.04
2022-08-16T10:53:07.768Z,28.03
2022-08-16T10:55:57.416Z,28.22
2022-08-16T10:58:44.889Z,28.43
2022-08-16T11:01:43.512Z,28.38
2022-08-16T11:07:47.252Z,28.57
2022-08-16T11:13:58.861Z,28.70
2022-08-16T11:17:09.107Z,28.89
2022-08-16T11:20:36.721Z,28.82
2022-08-16T11:23:00.690Z,29.07
2022-08-16T11:26:20.541Z,29.18
2022-08-16T11:29:14.028Z,28.96
2022-08-16T11:32:02.574Z,29.10
2022-08-16T11:35:10.455Z,29.18
2022-08-16T11:38:23.598Z,29.26
2022-08-16T11:41:10.983Z,29.48
2022-08-16T11:43:58.262Z,29.30
2022-08-16T11:46:46.800Z,29.43
2022-08-16T11:49:34.156Z,29.66
2022-08-16T11:52:23.847Z,29.58
2022-08-16T11:55:14.989Z,29.62
2022-08-16T11:58:02.795Z,29.68
2022-08-16T12:00:53.100Z,29.51
2022-08-16T12:03:41.713Z,29.67
2022-08-16T12:06:30.880Z,29.80
2022-08-16T12:09:20.717Z,29.81
2022-08-16T12:12:07.875Z,30.09
2022-08-16T12:14:59.421Z,30.05
2022-08-16T12:17:47.784Z,29.92
2022-08-16T12:20:41.728Z,29.88
2022-08-16T12:23:28.991Z,30.10
2022-08-16T12:26:18.678Z,29.89
2022-08-16T12:29:06.125Z,30.17
2022-08-16T12:32:00.580Z,30.35
2022-08-16T12:34:59.212Z,30.60
2022-08-16T12:37:48.405Z,30.78
2022-08-16T12:40:46.648Z,30.68
2022-08-16T12:43:34.448Z,30.76
2022-08-16T12:46:22.244Z,30.83
2022-08-16T12:49:11.503Z,30.53
2022-08-16T12:52:01.292Z,30.65
2022-08-16T12:54:54.910Z,30.85
2022-08-16T12:57:42.455Z,31.01
2022-08-16T13:00:33.268Z,30.83
2022-08-16T13:03:21.736Z,31.06
2022-08-16T13:06:09.241Z,31.13
2022-08-16T13:08:58.394Z,30.99
2022-08-16T13:11:59.903Z,31.14
2022-08-16T13:14:50.013Z,31.31
2022-08-16T13:17:38.904Z,31.62
2022-08-16T13:20:30.589Z,31.42
2022-08-16T13:23:18.047Z,31.70
2022-08-16T13:26:05.856Z,31.73
2022-08-16T13:28:55.248Z,31.39
2022-08-16T13:31:42.553Z,31.93
2022-08-16T13:34:29.727Z,31.96
2022-08-16T13:37:17.745Z,31.95
2022-08-16T13:40:06.646Z,32.15
2022-08-16T13:42:56.318Z,32.04
2022-08-16T13:45:44.844Z,32.31
2022-08-16T13:48:42.920Z,32.00
2022-08-16T13:51:31.709Z,32.36
2022-08-16T13:54:18.779Z,32.45
2022-08-16T13:57:06.199Z,32.62
2022-08-16T13:59:53.242Z,32.52
2022-08-16T14:02:45.881Z,32.71
2022-08-16T14:05:35.928Z,32.31
2022-08-16T14:08:27.012Z,32.32
2022-08-16T14:11:15.868Z,32.29
2022-08-16T14:14:05.403Z,32.51
2022-08-16T14:16:53.046Z,32.57
2022-08-16T14:19:44.857Z,32.43
2022-08-16T14:22:39.771Z,32.71
2022-08-16T14:25:27.156Z,32.94
2022-08-16T14:28:16.129Z,32.89
2022-08-16T14:31:03.744Z,32.93
2022-08-16T14:33:50.913Z,32.83
2022-08-16T14:36:38.174Z,33.02
2022-08-16T14:39:29.613Z,33.22
2022-08-16T14:42:23.363Z,33.49
2022-08-16T14:45:12.358Z,33.41
2022-08-16T14:48:01.064Z,33.25
2022-08-16T14:50:48.172Z,33.17
2022-08-16T14:53:35.639Z,32.84
2022-08-16T14:56:38.976Z,32.97
2022-08-16T14:59:30.088Z,32.92
2022-08-16T15:02:33.846Z,32.56
2022-08-16T15:05:24.646Z,32.26
2022-08-16T15:08:11.829Z,32.19
2022-08-16T15:10:58.731Z,32.53
2022-08-16T15:13:45.787Z,32.61
2022-08-16T15:16:34.579Z,32.65
2022-08-16T15:19:22.805Z,32.84
2022-08-16T15:22:15.701Z,32.56
2022-08-16T15:25:10.900Z,33.10
2022-08-16T15:28:05.430Z,33.21
2022-08-16T15:30:59.620Z,33.48
2022-08-16T15:33:55.103Z,33.35
2022-08-16T15:36:45.310Z,33.21
2022-08-16T15:39:39.473Z,33.18
2022-08-16T15:42:28.683Z,33.18
2022-08-16T15:45:36.318Z,33.54
2022-08-16T15:48:28.637Z,33.97
2022-08-16T15:51:16.526Z,33.69
2022-08-16T15:54:30.164Z,33.62
2022-08-16T15:57:12.390Z,34.19
2022-08-16T16:00:04.988Z,34.00
2022-08-16T16:03:09.085Z,33.55
2022-08-16T16:05:59.615Z,33.97
2022-08-16T16:08:48.783Z,33.67
2022-08-16T16:11:38.539Z,33.15
2022-08-16T16:14:25.535Z,32.59
2022-08-16T16:17:17.315Z,32.38
2022-08-16T16:20:05.668Z,32.65
2022-08-16T16:23:05.071Z,32.50
2022-08-16T16:25:58.980Z,32.12
2022-08-16T16:29:08.393Z,32.34
2022-08-16T16:31:59.586Z,32.58
2022-08-16T16:34:47.208Z,32.61
2022-08-16T16:37:34.382Z,32.31
2022-08-16T16:40:32.407Z,32.56
2022-08-16T16:43:20.655Z,32.77
2022-08-16T16:46:41.014Z,32.76
2022-08-16T16:49:22.434Z,32.70
2022-08-16T16:52:13.864Z,32.70
2022-08-16T16:55:20.840Z,32.53
2022-08-16T16:58:29.056Z,32.31
2022-08-16T17:01:48.125Z,32.08
2022-08-16T17:04:39.197Z,31.89
2022-08-16T17:07:26.914Z,31.77
2022-08-16T17:10:45.973Z,31.52
2022-08-16T17:13:25.584Z,31.23
2022-08-16T17:16:18.594Z,31.10
2022-08-16T17:19:16.475Z,30.48
2022-08-16T17:22:14.912Z,30.48
2022-08-16T17:25:07.395Z,30.60
2022-08-16T17:27:54.610Z,30.63
2022-08-16T17:30:45.292Z,30.69
2022-08-16T17:33:36.965Z,30.59
2022-08-16T17:36:36.008Z,30.55
2022-08-16T17:39:24.041Z,30.37
2022-08-16T17:42:16.505Z,30.32
2022-08-16T17:45:04.010Z,30.45
2022-08-16T17:47:51.743Z,30.31
2022-08-16T17:50:39.635Z,30.20
2022-08-16T17:53:26.763Z,30.26
2022-08-16T17:56:17.598Z,30.36
2022-08-16T17:59:04.858Z,30.33
2022-08-16T18:01:51.997Z,30.30
2022-08-16T18:04:49.120Z,30.33
2022-08-16T18:07:37.768Z,30.12
2022-08-16T18:10:32.822Z,29.98
2022-08-16T18:13:23.758Z,29.86
2022-08-16T18:16:11.653Z,29.91
2022-08-16T18:18:59.854Z,29.69
2022-08-16T18:22:05.201Z,29.55
2022-08-16T18:24:53.257Z,29.47
2022-08-16T18:27:40.206Z,29.39
2022-08-16T18:30:27.332Z,29.39
2022-08-16T18:33:15.210Z,29.32
2022-08-16T18:36:03.787Z,29.31
2022-08-16T18:39:07.298Z,29.26
2022-08-16T18:41:54.570Z,29.14
2022-08-16T18:44:43.726Z,28.93
2022-08-16T18:47:30.815Z,28.98
2022-08-16T18:50:18.415Z,28.92
2022-08-16T18:53:08.144Z,28.76
2022-08-16T18:55:57.293Z,28.65
2022-08-16T18:58:44.336Z,28.55
2022-08-16T19:01:31.790Z,28.34
2022-08-16T19:04:55.098Z,28.40
2022-08-16T19:07:30.589Z,28.38
2022-08-16T19:10:19.337Z,28.41
2022-08-16T19:13:14.903Z,28.50
2022-08-16T19:16:04.358Z,28.26
2022-08-16T19:18:51.290Z,28.06
2022-08-16T19:21:39.723Z,28.11
2022-08-16T19:24:29.273Z,28.09
2022-08-16T19:27:16.575Z,27.94
2022-08-16T19:30:07.552Z,27.83
2022-08-16T19:32:55.517Z,27.68
2022-08-16T19:35:42.456Z,27.20
2022-08-16T19:38:30.231Z,26.85
2022-08-16T19:41:17.150Z,26.75
2022-08-16T19:44:05.531Z,26.60
2022-08-16T19:46:52.465Z,26.54
2022-08-16T19:49:39.719Z,26.40
2022-08-16T19:52:29.470Z,26.21
2022-08-16T19:55:22.333Z,26.28
2022-08-16T19:58:13.210Z,26.23
2022-08-16T20:01:00.926Z,26.09
2022-08-16T20:03:47.823Z,25.96
2022-08-16T20:06:38.348Z,25.90
2022-08-16T20:09:25.842Z,25.78
2022-08-16T20:12:16.869Z,25.81
2022-08-16T20:15:10.165Z,25.55
2022-08-16T20:17:58.336Z,25.68
2022-08-16T20:20:45.891Z,25.69
2022-08-16T20:23:33.095Z,25.53
2022-08-16T20:26:23.675Z,25.50
2022-08-16T20:29:13.151Z,25.36
2022-08-16T20:32:00.243Z,25.16
2022-08-16T20:34:49.226Z,25.34
2022-08-16T20:37:37.533Z,25.24
2022-08-16T20:40:34.342Z,25.28
2022-08-16T20:43:22.578Z,25.19
2022-08-16T20:46:09.963Z,25.16
2022-08-16T20:48:56.885Z,25.29
2022-08-16T20:51:49.015Z,25.02
2022-08-16T20:54:37.480Z,24.84
2022-08-16T20:57:24.708Z,24.99
2022-08-16T21:00:13.550Z,24.98
2022-08-16T21:03:08.639Z,25.06
2022-08-16T21:06:02.104Z,25.09
2022-08-16T21:08:53.604Z,25.03
2022-08-16T21:11:41.276Z,24.77
2022-08-16T21:14:29.660Z,24.84
2022-08-16T21:17:17.392Z,24.77
2022-08-16T21:20:11.530Z,24.70
2022-08-16T21:23:03.942Z,24.88
2022-08-16T21:25:54.819Z,24.91
2022-08-16T21:28:45.836Z,24.87
2022-08-16T21:31:33.176Z,25.06
2022-08-16T21:34:20.535Z,25.08
2022-08-16T21:37:07.787Z,25.18
2022-08-16T21:39:55.113Z,25.09
2022-08-16T21:42:43.165Z,24.88
2022-08-16T21:45:30.392Z,24.84
2022-08-16T21:48:17.385Z,24.91
2022-08-16T21:51:19.990Z,24.95
2022-08-16T21:54:06.944Z,24.96
2022-08-16T21:56:54.074Z,24.79
2022-08-16T21:59:40.993Z,24.97
2022-08-16T22:02:35.711Z,24.88
2022-08-16T22:05:26.058Z,24.98
2022-08-16T22:08:14.440Z,24.88
2022-08-16T22:11:06.391Z,24.93
2022-08-16T22:13:58.658Z,24.60
2022-08-16T22:16:47.224Z,24.73
2022-08-16T22:19:34.391Z,24.86
2022-08-16T22:22:21.377Z,24.74
2022-08-16T22:25:08.933Z,24.73
2022-08-16T22:27:55.851Z,24.75
2022-08-16T22:30:43.750Z,24.93
2022-08-16T22:33:30.678Z,24.96
2022-08-16T22:36:17.773Z,24.69
2022-08-16T22:39:07.904Z,24.73
2022-08-16T22:41:55.070Z,24.61
2022-08-16T22:44:46.268Z,24.82
2022-08-16T22:47:33.634Z,24.82
2022-08-16T22:50:20.628Z,24.64
2022-08-16T22:53:09.280Z,24.65
2022-08-16T22:55:57.207Z,24.50
2022-08-16T22:58:45.933Z,24.04
2022-08-16T23:01:32.970Z,24.07
2022-08-16T23:04:20.255Z,24.09
2022-08-16T23:07:07.187Z,23.97
2022-08-16T23:09:54.848Z,24.03
2022-08-16T23:12:50.482Z,23.96
2022-08-16T23:15:46.915Z,23.84
2022-08-16T23:18:39.953Z,24.04
2022-08-16T23:21:27.960Z,24.10
2022-08-16T23:24:15.902Z,24.26
2022-08-16T23:27:03.097Z,24.18
2022-08-16T23:29:50.048Z,24.22
2022-08-16T23:32:44.080Z,24.09
2022-08-16T23:35:45.655Z,23.83
2022-08-16T23:38:37.794Z,23.71
2022-08-16T23:41:26.050Z,23.77
2022-08-16T23:44:57.429Z,23.59
2022-08-16T23:47:20.085Z,23.43
2022-08-16T23:50:08.156Z,23.45
2022-08-16T23:53:05.850Z,23.50
2022-08-16T23:55:56.328Z,23.44
2022-08-16T23:58:46.738Z,23.33
